Time;durP1;ratioP1;P1;durP2;ratioP2;P2;SDS_P1;SDS_P2;PMS_P1;PMS_P2;Temp;Humidity;BMP_temperature;BMP_pressure;BME280_temperature;BME280_humidity;BME280_pressure;Samples;Min_cycle;Max_cycle;Signal;HPM_P1;HPM_P2
2023/08/04 00:00:35;;;;;;;6.53;4.80;;;16.30;99.90;;;;;;5034285;28;20445;-61
2023/08/04 00:03:02;;;;;;;8.00;5.00;;;16.20;99.90;;;;;;5034161;28;20465;-59
2023/08/04 00:05:29;;;;;;;6.43;5.00;;;16.20;99.90;;;;;;5034205;28;20495;-60
2023/08/04 00:07:56;;;;;;;8.00;5.13;;;16.10;99.90;;;;;;5033832;28;20437;-60
2023/08/04 00:10:23;;;;;;;13.10;5.97;;;16.20;99.90;;;;;;5034059;28;20475;-61
2023/08/04 00:12:50;;;;;;;11.03;4.80;;;16.10;99.90;;;;;;5033101;28;20994;-60
2023/08/04 00:15:18;;;;;;;7.80;5.20;;;16.10;99.90;;;;;;5034137;28;20463;-60
2023/08/04 00:17:44;;;;;;;8.20;5.13;;;16.20;99.90;;;;;;5033469;28;20481;-60
2023/08/04 00:20:12;;;;;;;8.07;4.80;;;16.20;99.90;;;;;;5032981;28;20443;-60
2023/08/04 00:22:39;;;;;;;10.23;4.90;;;16.20;99.90;;;;;;5032698;28;20565;-59
2023/08/04 00:25:07;;;;;;;12.10;5.37;;;16.30;99.90;;;;;;5032588;28;20437;-60
2023/08/04 00:27:34;;;;;;;8.80;4.47;;;16.30;99.90;;;;;;5034011;28;20445;-60
2023/08/04 00:30:01;;;;;;;11.10;4.53;;;16.30;99.90;;;;;;5037392;28;20527;-61
2023/08/04 00:32:29;;;;;;;8.50;4.77;;;16.30;99.90;;;;;;5037112;28;20903;-60
2023/08/04 00:34:56;;;;;;;7.90;4.90;;;16.30;99.90;;;;;;5037150;28;20459;-59
2023/08/04 00:37:23;;;;;;;5.50;4.00;;;16.30;99.90;;;;;;5037650;28;20484;-60
2023/08/04 00:39:50;;;;;;;7.97;4.30;;;16.30;99.90;;;;;;5036590;28;20888;-60
2023/08/04 00:42:16;;;;;;;6.53;4.20;;;16.30;99.90;;;;;;5036542;28;20467;-61
2023/08/04 00:44:43;;;;;;;9.53;4.30;;;16.30;99.90;;;;;;5036752;28;20539;-60
2023/08/04 00:47:10;;;;;;;9.20;4.20;;;16.20;99.90;;;;;;5037243;28;20443;-61
2023/08/04 00:49:39;;;;;;;6.63;3.97;;;16.20;99.90;;;;;;5036568;28;20445;-60
2023/08/04 00:52:08;;;;;;;7.43;3.87;;;16.20;99.90;;;;;;5036353;28;20460;-60
2023/08/04 00:54:35;;;;;;;6.10;3.70;;;16.20;99.90;;;;;;5036198;28;20495;-61
2023/08/04 00:57:03;;;;;;;8.40;3.93;;;16.20;99.90;;;;;;5036786;28;20488;-60
2023/08/04 00:59:30;;;;;;;13.50;4.20;;;16.10;99.90;;;;;;5036095;28;20956;-59
2023/08/04 01:01:57;;;;;;;7.10;3.50;;;16.10;99.90;;;;;;5036230;28;21032;-59
2023/08/04 01:04:24;;;;;;;7.03;3.83;;;16.10;99.90;;;;;;5037082;28;20815;-61
2023/08/04 01:07:03;;;;;;;4.87;3.50;;;16.10;99.90;;;;;;5036937;28;20468;-60
2023/08/04 01:09:36;;;;;;;5.27;3.77;;;16.10;99.90;;;;;;5036033;28;20543;-60
2023/08/04 01:12:11;;;;;;;7.87;4.20;;;16.00;99.90;;;;;;5036007;28;20484;-60
2023/08/04 01:14:39;;;;;;;6.50;3.93;;;16.00;99.90;;;;;;5036074;28;20509;-59
2023/08/04 01:17:27;;;;;;;13.17;5.07;;;16.00;99.90;;;;;;5035633;28;20481;-59
2023/08/04 01:19:54;;;;;;;10.20;3.93;;;15.90;99.90;;;;;;5036321;28;20421;-59
2023/08/04 01:22:23;;;;;;;7.90;4.80;;;15.80;99.90;;;;;;5035953;28;20456;-61
2023/08/04 01:24:51;;;;;;;9.83;4.37;;;15.80;99.90;;;;;;5036126;28;20433;-60
2023/08/04 01:27:23;;;;;;;6.80;3.97;;;15.70;99.90;;;;;;5035976;28;20447;-60
2023/08/04 01:29:51;;;;;;;7.90;3.97;;;15.60;99.90;;;;;;5035791;28;20435;-60
2023/08/04 01:32:18;;;;;;;11.27;3.90;;;15.60;99.90;;;;;;5035474;28;20491;-60
2023/08/04 01:34:48;;;;;;;7.33;4.33;;;15.50;99.90;;;;;;5035755;28;20436;-60
2023/08/04 01:37:15;;;;;;;10.90;4.30;;;15.50;99.90;;;;;;5035294;28;20966;-60
2023/08/04 01:39:43;;;;;;;10.50;5.13;;;15.40;99.90;;;;;;5036160;28;20441;-60
2023/08/04 01:42:10;;;;;;;10.20;4.63;;;15.40;99.90;;;;;;5035713;28;20461;-61
2023/08/04 01:44:37;;;;;;;10.27;4.53;;;15.30;99.90;;;;;;5036043;28;20451;-60
2023/08/04 01:47:05;;;;;;;11.23;5.00;;;15.30;99.90;;;;;;5035803;28;20448;-59
2023/08/04 01:49:32;;;;;;;11.80;6.00;;;15.30;99.90;;;;;;5035564;28;20445;-60
2023/08/04 01:51:59;;;;;;;12.43;4.40;;;15.20;99.90;;;;;;5036254;28;20467;-59
2023/08/04 01:54:25;;;;;;;10.87;4.50;;;15.20;99.90;;;;;;5035398;28;20441;-60
2023/08/04 01:56:53;;;;;;;13.67;4.67;;;15.20;99.90;;;;;;5035644;28;20481;-59
2023/08/04 01:59:20;;;;;;;6.90;4.23;;;15.10;99.90;;;;;;5035658;28;20434;-60
2023/08/04 02:01:47;;;;;;;10.40;4.37;;;15.10;99.90;;;;;;5035194;28;20473;-61
2023/08/04 02:04:14;;;;;;;10.57;4.60;;;15.10;99.90;;;;;;5035763;28;20446;-60
2023/08/04 02:06:41;;;;;;;13.40;4.57;;;15.10;99.90;;;;;;5036407;28;20447;-61
2023/08/04 02:09:07;;;;;;;9.07;4.80;;;15.00;99.90;;;;;;5036154;28;20930;-61
2023/08/04 02:11:34;;;;;;;7.27;4.70;;;15.00;99.90;;;;;;5036071;28;20445;-60
2023/08/04 02:14:02;;;;;;;9.67;5.07;;;15.00;99.90;;;;;;5035584;28;20421;-61
2023/08/04 02:16:29;;;;;;;10.33;5.43;;;14.90;99.90;;;;;;5035596;28;20441;-60
2023/08/04 02:19:04;;;;;;;10.17;5.60;;;14.90;99.90;;;;;;5035371;28;20477;-60
2023/08/04 02:21:30;;;;;;;9.93;5.23;;;14.90;99.90;;;;;;5034601;28;20417;-60
2023/08/04 02:23:57;;;;;;;10.70;5.13;;;14.90;99.90;;;;;;5034903;28;20436;-59
2023/08/04 02:26:24;;;;;;;6.27;4.80;;;14.80;99.90;;;;;;5034783;28;20547;-60
2023/08/04 02:28:53;;;;;;;7.80;4.90;;;14.80;99.90;;;;;;5034577;28;20440;-60
2023/08/04 02:31:23;;;;;;;8.07;4.60;;;14.80;99.90;;;;;;5034796;28;20451;-60
2023/08/04 02:33:49;;;;;;;12.63;6.83;;;14.80;99.90;;;;;;5034570;28;20437;-60
2023/08/04 02:36:18;;;;;;;13.57;6.70;;;14.80;99.90;;;;;;5034437;28;20437;-60
2023/08/04 02:38:44;;;;;;;11.73;5.87;;;14.70;99.90;;;;;;5034551;28;21022;-59
2023/08/04 02:41:11;;;;;;;10.73;5.00;;;14.70;99.90;;;;;;5034737;28;20528;-60
2023/08/04 02:43:38;;;;;;;8.97;4.77;;;14.70;99.90;;;;;;5034490;28;20461;-61
2023/08/04 02:46:05;;;;;;;17.40;5.23;;;14.70;99.90;;;;;;5034771;28;20445;-60
2023/08/04 02:48:33;;;;;;;9.23;5.43;;;14.70;99.90;;;;;;5034652;28;20433;-60
2023/08/04 02:51:02;;;;;;;13.63;5.70;;;14.70;99.90;;;;;;5033670;28;20437;-60
2023/08/04 02:53:29;;;;;;;9.90;5.47;;;14.70;99.90;;;;;;5034536;28;20456;-60
2023/08/04 02:55:56;;;;;;;10.33;5.20;;;14.70;99.90;;;;;;5035017;28;20836;-60
2023/08/04 02:58:23;;;;;;;8.87;5.27;;;14.70;99.90;;;;;;5035179;28;20481;-59
2023/08/04 03:00:50;;;;;;;13.33;5.40;;;14.70;99.90;;;;;;5034891;28;20441;-60
2023/08/04 03:03:18;;;;;;;9.07;4.90;;;14.70;99.90;;;;;;5034318;28;20461;-60
2023/08/04 03:05:46;;;;;;;10.50;5.00;;;14.70;99.90;;;;;;5034283;28;20463;-60
2023/08/04 03:08:13;;;;;;;7.90;4.50;;;14.70;99.90;;;;;;5034609;28;20445;-60
2023/08/04 03:10:41;;;;;;;11.03;5.10;;;14.70;99.90;;;;;;5033983;28;20445;-60
2023/08/04 03:13:08;;;;;;;8.53;4.53;;;14.70;99.90;;;;;;5033713;28;20473;-60
2023/08/04 03:15:35;;;;;;;8.17;4.93;;;14.70;99.90;;;;;;5034575;28;20441;-60
2023/08/04 03:18:02;;;;;;;7.60;4.77;;;14.70;99.90;;;;;;5033859;28;20481;-59
2023/08/04 03:20:30;;;;;;;9.53;4.53;;;14.60;99.90;;;;;;5034063;28;20437;-60
2023/08/04 03:22:58;;;;;;;11.90;7.10;;;14.60;99.90;;;;;;5034028;28;20471;-60
2023/08/04 03:25:25;;;;;;;10.10;5.43;;;14.60;99.90;;;;;;5033834;28;20441;-59
2023/08/04 03:27:52;;;;;;;10.23;4.83;;;14.60;99.90;;;;;;5033630;28;20502;-60
2023/08/04 03:30:18;;;;;;;9.90;4.93;;;14.60;99.90;;;;;;5033510;28;20451;-60
2023/08/04 03:32:45;;;;;;;6.67;4.30;;;14.60;99.90;;;;;;5033374;28;20453;-60
2023/08/04 03:35:12;;;;;;;10.60;5.10;;;14.60;99.90;;;;;;5033524;28;20541;-59
2023/08/04 03:37:40;;;;;;;11.00;4.43;;;14.60;99.90;;;;;;5033161;28;20473;-60
2023/08/04 03:40:10;;;;;;;12.10;4.93;;;14.70;99.90;;;;;;5033805;28;20448;-59
2023/08/04 03:42:38;;;;;;;9.53;4.43;;;14.70;99.90;;;;;;5033138;28;20815;-59
2023/08/04 03:45:06;;;;;;;8.23;4.90;;;14.70;99.90;;;;;;5032944;28;20935;-62
2023/08/04 03:47:34;;;;;;;7.23;4.40;;;14.70;99.90;;;;;;5033312;28;20437;-61
2023/08/04 03:50:01;;;;;;;8.00;4.40;;;14.70;99.90;;;;;;5033436;28;20544;-60
2023/08/04 03:52:28;;;;;;;7.27;4.70;;;14.70;99.90;;;;;;5032926;28;20465;-60
2023/08/04 03:54:55;;;;;;;12.77;3.37;;;14.70;99.90;;;;;;5033322;28;20813;-60
2023/08/04 03:57:23;;;;;;;8.80;4.30;;;14.70;99.90;;;;;;5033214;28;20445;-60
2023/08/04 03:59:51;;;;;;;8.70;4.17;;;14.70;99.90;;;;;;5033987;28;20471;-59
2023/08/04 04:02:18;;;;;;;6.23;4.10;;;14.70;99.90;;;;;;5032983;28;20833;-60
2023/08/04 04:04:45;;;;;;;12.57;5.50;;;14.80;99.90;;;;;;5033460;28;20536;-60
2023/08/04 04:07:12;;;;;;;6.87;3.63;;;14.80;99.90;;;;;;5032916;28;20456;-60
2023/08/04 04:12:04;;;;;;;6.93;4.07;;;14.90;99.90;;;;;;5092499;28;20615;-60
2023/08/04 04:14:31;;;;;;;8.67;3.93;;;14.90;99.90;;;;;;5084003;22;20498;-65
2023/08/04 04:16:58;;;;;;;7.93;3.90;;;14.90;99.90;;;;;;5050583;28;20444;-64
2023/08/04 04:19:25;;;;;;;12.80;3.47;;;15.00;99.90;;;;;;5050571;28;20436;-64
2023/08/04 04:21:52;;;;;;;6.63;3.87;;;15.00;99.90;;;;;;5050631;28;20539;-64
2023/08/04 04:24:18;;;;;;;4.73;3.80;;;15.00;99.90;;;;;;5050237;28;20464;-64
2023/08/04 04:26:45;;;;;;;9.20;4.03;;;15.10;99.90;;;;;;5050412;28;20451;-65
2023/08/04 04:29:13;;;;;;;7.80;3.77;;;15.10;99.90;;;;;;5050433;28;20443;-65
2023/08/04 04:31:40;;;;;;;5.90;3.60;;;15.10;99.90;;;;;;5050114;28;20483;-66
2023/08/04 04:34:07;;;;;;;12.63;3.13;;;15.20;99.90;;;;;;5050268;28;20547;-64
2023/08/04 04:36:34;;;;;;;7.20;3.77;;;15.20;99.90;;;;;;5049678;28;20448;-65
2023/08/04 04:39:01;;;;;;;12.67;4.10;;;15.20;99.90;;;;;;5049950;28;20795;-64
2023/08/04 04:41:29;;;;;;;8.63;4.37;;;15.20;99.90;;;;;;5049760;28;20547;-64
2023/08/04 04:43:56;;;;;;;4.90;3.50;;;15.30;99.90;;;;;;5049571;28;20464;-64
2023/08/04 04:46:24;;;;;;;10.17;3.50;;;15.30;99.90;;;;;;5049821;28;20437;-64
2023/08/04 04:48:51;;;;;;;5.00;4.00;;;15.40;99.90;;;;;;5049424;28;20452;-64
2023/08/04 04:51:17;;;;;;;7.50;3.63;;;15.40;99.90;;;;;;5049329;28;20478;-64
2023/08/04 04:53:44;;;;;;;5.20;3.50;;;15.40;99.90;;;;;;5050024;28;20977;-64
2023/08/04 04:56:11;;;;;;;10.00;3.80;;;15.50;99.90;;;;;;5049665;28;20447;-64
2023/08/04 04:58:38;;;;;;;5.60;2.90;;;15.50;99.90;;;;;;5049463;28;20436;-64
2023/08/04 05:01:05;;;;;;;7.47;3.73;;;15.50;99.90;;;;;;5049192;28;20442;-64
2023/08/04 05:03:34;;;;;;;4.90;3.87;;;15.60;99.90;;;;;;5050248;28;20461;-64
2023/08/04 05:06:00;;;;;;;8.20;3.47;;;15.60;99.90;;;;;;5049521;28;20448;-65
2023/08/04 05:08:27;;;;;;;10.30;3.93;;;15.60;99.90;;;;;;5049843;28;20474;-65
2023/08/04 05:10:55;;;;;;;5.00;3.40;;;15.70;99.90;;;;;;5049725;28;20480;-64
2023/08/04 05:13:21;;;;;;;6.90;3.03;;;15.70;99.90;;;;;;5048988;28;20472;-65
2023/08/04 05:15:48;;;;;;;4.27;2.67;;;15.70;99.90;;;;;;5049382;28;20445;-64
2023/08/04 05:18:16;;;;;;;7.37;3.47;;;15.60;99.90;;;;;;5049704;28;20447;-64
2023/08/04 05:20:46;;;;;;;6.27;3.07;;;15.70;99.90;;;;;;5050066;28;20575;-64
2023/08/04 05:23:14;;;;;;;4.37;2.60;;;15.70;99.90;;;;;;5037944;28;20461;-64
2023/08/04 05:25:41;;;;;;;7.57;2.67;;;15.70;99.90;;;;;;5035827;28;20943;-64
2023/08/04 05:28:22;;;;;;;7.27;3.10;;;15.70;99.90;;;;;;5036485;28;20452;-64
2023/08/04 05:30:49;;;;;;;6.53;3.40;;;15.70;99.90;;;;;;5036270;28;20489;-64
2023/08/04 05:33:16;;;;;;;7.10;3.23;;;15.70;99.90;;;;;;5044818;28;20460;-64
2023/08/04 05:35:47;;;;;;;4.40;3.90;;;15.70;99.90;;;;;;5048484;28;20437;-64
2023/08/04 05:38:14;;;;;;;9.53;2.90;;;15.80;99.90;;;;;;5046264;28;20425;-64
2023/08/04 05:40:43;;;;;;;5.97;3.07;;;15.80;99.90;;;;;;5037768;28;20459;-65
2023/08/04 05:43:10;;;;;;;4.87;4.37;;;15.90;99.90;;;;;;5036869;28;20457;-64
2023/08/04 05:45:38;;;;;;;4.37;2.83;;;15.90;99.90;;;;;;5036370;28;20448;-64
2023/08/04 05:48:05;;;;;;;5.27;3.20;;;16.00;99.90;;;;;;5036020;28;20437;-65
2023/08/04 05:50:32;;;;;;;5.10;2.50;;;16.00;99.90;;;;;;5036061;28;20563;-63
2023/08/04 05:53:00;;;;;;;3.33;2.40;;;16.10;99.90;;;;;;5035118;28;20791;-66
2023/08/04 05:55:27;;;;;;;6.77;2.70;;;16.10;99.90;;;;;;5035670;28;20448;-65
2023/08/04 05:57:55;;;;;;;7.30;3.87;;;16.10;99.90;;;;;;5035829;28;20533;-65
2023/08/04 06:00:22;;;;;;;10.50;2.93;;;16.20;99.90;;;;;;5038753;28;20973;-65
2023/08/04 06:02:49;;;;;;;4.63;3.20;;;16.30;99.90;;;;;;5041555;28;20528;-65
2023/08/04 06:05:16;;;;;;;10.80;3.80;;;16.30;99.90;;;;;;5038868;28;20445;-66
2023/08/04 06:07:43;;;;;;;5.13;2.80;;;16.40;99.90;;;;;;5037719;28;20524;-65
2023/08/04 06:10:12;;;;;;;5.83;3.70;;;16.50;99.90;;;;;;5036563;28;20532;-64
2023/08/04 06:12:39;;;;;;;10.10;3.37;;;16.60;99.90;;;;;;5039837;28;20445;-64
2023/08/04 06:15:06;;;;;;;5.43;3.20;;;16.70;99.90;;;;;;5037449;28;20895;-64
2023/08/04 06:17:33;;;;;;;6.10;3.13;;;16.80;99.90;;;;;;5037508;28;20536;-64
2023/08/04 06:20:00;;;;;;;5.33;4.10;;;16.90;99.90;;;;;;5034949;28;20448;-65
2023/08/04 06:22:27;;;;;;;5.80;2.43;;;16.90;99.90;;;;;;5035245;28;20516;-64
2023/08/04 06:24:54;;;;;;;4.67;2.70;;;17.00;99.90;;;;;;5034776;28;20461;-64
2023/08/04 06:27:22;;;;;;;5.23;2.73;;;17.00;99.90;;;;;;5035049;28;20477;-64
2023/08/04 06:29:49;;;;;;;7.47;2.73;;;17.00;99.90;;;;;;5034874;28;20437;-65
2023/08/04 06:32:16;;;;;;;8.80;2.50;;;17.10;99.90;;;;;;5034837;28;20481;-64
2023/08/04 06:34:42;;;;;;;10.33;3.33;;;17.10;99.90;;;;;;5033446;28;20986;-63
2023/08/04 06:37:09;;;;;;;5.73;2.63;;;17.10;99.90;;;;;;5034915;28;20540;-65
2023/08/04 06:39:36;;;;;;;4.13;2.63;;;17.10;99.90;;;;;;5034926;28;20467;-64
2023/08/04 06:42:04;;;;;;;3.80;2.40;;;17.10;99.90;;;;;;5034664;28;20435;-64
2023/08/04 06:44:32;;;;;;;11.93;3.30;;;17.00;99.90;;;;;;5034927;28;20469;-66
2023/08/04 06:46:58;;;;;;;6.30;2.80;;;17.10;99.90;;;;;;5034715;28;20905;-65
2023/08/04 06:49:25;;;;;;;2.57;2.30;;;17.10;99.90;;;;;;5034830;28;20441;-65
2023/08/04 06:51:52;;;;;;;5.50;2.47;;;17.20;99.90;;;;;;5034608;28;20484;-64
2023/08/04 06:54:19;;;;;;;3.40;2.30;;;17.20;99.90;;;;;;5034392;28;20472;-65
2023/08/04 06:56:46;;;;;;;7.03;2.63;;;17.20;99.90;;;;;;5034092;28;20932;-64
2023/08/04 06:59:13;;;;;;;4.10;2.47;;;17.20;99.90;;;;;;5034274;28;20449;-65
2023/08/04 07:01:41;;;;;;;4.83;2.90;;;17.30;99.90;;;;;;5034020;28;20448;-65
2023/08/04 07:04:08;;;;;;;4.00;2.53;;;17.40;99.90;;;;;;5033925;28;20461;-64
2023/08/04 07:06:35;;;;;;;2.40;2.20;;;17.50;99.90;;;;;;5034153;28;20532;-65
2023/08/04 07:09:02;;;;;;;8.77;2.60;;;17.60;99.90;;;;;;5034221;28;20441;-65
2023/08/04 07:11:29;;;;;;;4.30;2.00;;;17.60;99.90;;;;;;5033844;28;20481;-64
2023/08/04 07:13:56;;;;;;;6.10;2.53;;;17.60;99.90;;;;;;5033491;28;20477;-64
2023/08/04 07:16:23;;;;;;;4.70;2.73;;;17.60;99.90;;;;;;5033853;28;20445;-64
2023/08/04 07:18:52;;;;;;;4.67;2.70;;;17.60;99.90;;;;;;5034216;28;20449;-64
2023/08/04 07:21:18;;;;;;;3.23;2.67;;;17.60;99.90;;;;;;5033957;28;20528;-65
2023/08/04 07:23:45;;;;;;;4.80;2.47;;;17.60;99.90;;;;;;5033979;28;20461;-64
2023/08/04 07:26:12;;;;;;;3.80;2.70;;;17.60;99.90;;;;;;5033439;28;20891;-65
2023/08/04 07:28:39;;;;;;;6.60;2.87;;;17.60;99.90;;;;;;5034135;28;20476;-63
2023/08/04 07:31:06;;;;;;;5.43;2.53;;;17.70;99.90;;;;;;5034366;28;20568;-64
2023/08/04 07:33:33;;;;;;;4.53;2.73;;;17.70;99.90;;;;;;5034259;28;20469;-64
2023/08/04 07:36:02;;;;;;;3.67;2.93;;;17.70;99.90;;;;;;5033442;28;20512;-63
2023/08/04 07:38:30;;;;;;;9.10;2.73;;;17.80;99.90;;;;;;5033589;28;20449;-63
2023/08/04 07:40:57;;;;;;;4.73;2.40;;;17.80;99.90;;;;;;5033383;28;20447;-64
2023/08/04 07:43:24;;;;;;;5.17;2.20;;;18.00;99.90;;;;;;5033492;28;20477;-64
2023/08/04 07:45:52;;;;;;;6.80;2.90;;;18.20;99.90;;;;;;5033406;28;20495;-65
2023/08/04 07:48:19;;;;;;;8.07;2.83;;;18.30;99.90;;;;;;5033496;28;20445;-65
2023/08/04 07:50:48;;;;;;;5.17;2.37;;;18.50;99.90;;;;;;5033454;28;20452;-64
2023/08/04 07:53:16;;;;;;;5.20;2.50;;;18.60;99.90;;;;;;5033100;28;20996;-65
2023/08/04 07:55:53;;;;;;;4.97;2.60;;;18.70;99.90;;;;;;5033139;28;20947;-65
2023/08/04 07:58:20;;;;;;;4.17;2.57;;;18.90;99.90;;;;;;5033570;28;20774;-65
2023/08/04 08:00:47;;;;;;;2.23;1.97;;;19.10;99.90;;;;;;5033275;28;20463;-64
2023/08/04 08:03:14;;;;;;;5.93;2.03;;;19.30;99.90;;;;;;5033128;28;20463;-64
2023/08/04 08:05:40;;;;;;;2.97;1.90;;;19.40;99.90;;;;;;5033321;28;20864;-64
2023/08/04 08:08:07;;;;;;;3.27;2.40;;;19.50;99.90;;;;;;5033197;28;20452;-65
2023/08/04 08:10:36;;;;;;;3.80;2.37;;;19.60;99.90;;;;;;5032807;28;20790;-64
2023/08/04 08:13:03;;;;;;;13.40;2.40;;;19.70;99.90;;;;;;5033344;28;20489;-64
2023/08/04 08:15:30;;;;;;;3.80;2.20;;;19.80;99.90;;;;;;5033025;28;20427;-64
2023/08/04 08:17:57;;;;;;;4.27;2.43;;;19.90;99.90;;;;;;5032984;28;20459;-64
2023/08/04 08:20:23;;;;;;;2.10;1.90;;;20.00;99.90;;;;;;5032929;28;20503;-65
2023/08/04 08:22:50;;;;;;;4.57;2.10;;;20.10;99.90;;;;;;5033062;28;20798;-64
2023/08/04 08:25:17;;;;;;;5.13;2.00;;;20.30;99.90;;;;;;5033100;28;20436;-64
2023/08/04 08:27:45;;;;;;;5.10;2.07;;;20.40;99.90;;;;;;5032992;28;20529;-65
2023/08/04 08:30:12;;;;;;;4.93;2.23;;;20.40;99.90;;;;;;5034096;28;20472;-63
2023/08/04 08:32:39;;;;;;;7.67;2.20;;;20.40;99.90;;;;;;5033020;28;20568;-61
2023/08/04 08:35:07;;;;;;;4.00;1.80;;;20.30;99.90;;;;;;5032632;28;20815;-63
2023/08/04 08:37:34;;;;;;;2.90;1.80;;;20.30;99.90;;;;;;5033112;28;20456;-62
2023/08/04 08:40:00;;;;;;;2.90;1.60;;;20.40;99.90;;;;;;5032837;28;20437;-64
2023/08/04 08:42:27;;;;;;;6.87;2.20;;;20.30;99.90;;;;;;5032601;28;20444;-64
2023/08/04 08:44:56;;;;;;;3.03;1.90;;;20.40;99.90;;;;;;5033754;28;20986;-64
2023/08/04 08:47:27;;;;;;;4.00;2.20;;;20.50;99.90;;;;;;5034428;28;20446;-65
2023/08/04 08:49:59;;;;;;;2.07;1.70;;;20.50;99.30;;;;;;5034916;28;20523;-65
2023/08/04 08:52:30;;;;;;;3.03;1.50;;;20.60;98.50;;;;;;5033258;28;20474;-64
2023/08/04 08:54:58;;;;;;;5.53;2.33;;;20.60;97.60;;;;;;5032769;28;20458;-65
2023/08/04 08:57:26;;;;;;;7.73;2.77;;;20.60;96.70;;;;;;5034285;28;20445;-65
2023/08/04 08:59:53;;;;;;;7.10;2.10;;;20.50;96.20;;;;;;5036610;28;20534;-64
2023/08/04 09:02:22;;;;;;;3.20;1.90;;;20.60;95.80;;;;;;5036443;28;20929;-64
2023/08/04 09:04:49;;;;;;;3.57;1.67;;;20.60;95.30;;;;;;5036614;28;20510;-65
2023/08/04 09:07:15;;;;;;;1.97;1.50;;;20.70;94.80;;;;;;5036219;28;20441;-66
2023/08/04 09:09:42;;;;;;;4.53;1.43;;;20.70;93.60;;;;;;5037198;28;20450;-65
2023/08/04 09:12:10;;;;;;;4.67;2.07;;;20.70;93.40;;;;;;5036518;28;20589;-65
2023/08/04 09:14:50;;;;;;;2.70;1.73;;;20.70;93.10;;;;;;5036042;28;20509;-66
2023/08/04 09:17:33;;;;;;;4.50;1.67;;;20.60;92.90;;;;;;5036542;28;20942;-65
2023/08/04 09:20:00;;;;;;;2.70;1.57;;;20.60;92.40;;;;;;5036306;28;20442;-65
2023/08/04 09:22:27;;;;;;;3.57;1.77;;;20.70;92.10;;;;;;5035831;28;20549;-64
2023/08/04 09:24:56;;;;;;;2.30;1.50;;;20.80;91.70;;;;;;5035983;28;20487;-65
2023/08/04 09:27:31;;;;;;;2.47;1.50;;;21.00;91.10;;;;;;5035866;28;20950;-66
2023/08/04 09:29:59;;;;;;;2.10;1.57;;;21.10;90.40;;;;;;5035989;28;20466;-65
2023/08/04 09:32:26;;;;;;;3.93;2.00;;;21.30;90.00;;;;;;5035613;28;20474;-65
2023/08/04 09:35:03;;;;;;;3.27;1.37;;;21.50;87.80;;;;;;5035712;28;20468;-65
2023/08/04 09:37:32;;;;;;;4.40;1.37;;;21.70;86.30;;;;;;5035950;28;20540;-62
2023/08/04 09:39:59;;;;;;;5.73;1.60;;;21.90;83.50;;;;;;5036105;28;20627;-64
2023/08/04 09:42:26;;;;;;;2.90;1.30;;;21.90;81.50;;;;;;5035905;28;20440;-64
2023/08/04 09:44:53;;;;;;;2.40;1.50;;;21.90;81.40;;;;;;5035899;28;20467;-65
2023/08/04 09:47:24;;;;;;;1.67;1.20;;;21.80;80.80;;;;;;5035935;28;20471;-63
2023/08/04 09:49:51;;;;;;;1.57;1.37;;;21.80;80.80;;;;;;5035733;28;20538;-64
2023/08/04 09:52:24;;;;;;;4.30;1.77;;;21.70;80.80;;;;;;5035918;28;20505;-65
2023/08/04 09:54:53;;;;;;;2.10;1.40;;;21.80;80.50;;;;;;5035795;28;20467;-65
2023/08/04 09:57:21;;;;;;;3.10;1.60;;;21.80;79.70;;;;;;5035281;28;20447;-64
2023/08/04 09:59:48;;;;;;;1.47;1.17;;;21.70;79.70;;;;;;5035332;28;20448;-64
2023/08/04 10:02:17;;;;;;;2.10;1.20;;;21.80;79.60;;;;;;5036338;28;20443;-64
2023/08/04 10:04:47;;;;;;;3.07;1.50;;;21.70;79.10;;;;;;5035717;28;20839;-64
2023/08/04 10:07:15;;;;;;;2.90;1.77;;;21.70;79.00;;;;;;5034760;28;20894;-65
2023/08/04 10:09:44;;;;;;;3.93;2.03;;;21.80;79.20;;;;;;5034663;28;20448;-65
2023/08/04 10:12:12;;;;;;;3.33;1.60;;;21.90;79.10;;;;;;5034722;28;20598;-65
2023/08/04 10:14:38;;;;;;;3.67;1.97;;;21.80;79.10;;;;;;5066668;22;20499;-60
2023/08/04 10:17:06;;;;;;;3.30;1.47;;;21.80;79.30;;;;;;5056310;28;20439;-61
2023/08/04 10:19:34;;;;;;;2.40;1.70;;;21.70;79.20;;;;;;5056109;28;20436;-60
2023/08/04 10:22:06;;;;;;;4.00;1.40;;;21.60;79.90;;;;;;5056049;28;20520;-60
2023/08/04 10:24:38;;;;;;;2.53;1.40;;;21.50;80.70;;;;;;5056550;28;20459;-60
2023/08/04 10:27:24;;;;;;;4.43;2.30;;;21.50;80.50;;;;;;5056569;28;20785;-60
2023/08/04 10:30:10;;;;;;;5.97;1.90;;;21.40;80.80;;;;;;5056557;28;20438;-59
2023/08/04 10:32:37;;;;;;;2.53;1.70;;;21.30;81.00;;;;;;5055673;28;20471;-62
2023/08/04 10:35:06;;;;;;;3.00;1.67;;;21.20;81.90;;;;;;5056410;28;20470;-60
2023/08/04 10:37:45;;;;;;;4.70;1.90;;;21.30;82.70;;;;;;5056819;28;20516;-60
2023/08/04 10:40:12;;;;;;;3.10;1.77;;;21.50;83.10;;;;;;5057347;28;20423;-57
2023/08/04 10:42:59;;;;;;;2.60;1.23;;;21.70;83.20;;;;;;5056683;28;20432;-60
2023/08/04 10:45:50;;;;;;;3.80;1.77;;;22.10;82.40;;;;;;5057216;28;20547;-61
2023/08/04 10:48:19;;;;;;;2.30;1.47;;;22.50;80.80;;;;;;5057215;28;20428;-60
2023/08/04 10:50:46;;;;;;;2.70;1.67;;;23.00;79.20;;;;;;5056299;28;20436;-60
2023/08/04 10:53:13;;;;;;;2.83;1.50;;;23.30;76.70;;;;;;5055825;28;20994;-61
2023/08/04 10:55:51;;;;;;;2.50;2.03;;;23.30;74.90;;;;;;5055865;28;20974;-61
2023/08/04 10:58:19;;;;;;;4.30;1.73;;;23.10;74.80;;;;;;5055744;28;20898;-60
2023/08/04 11:00:46;;;;;;;2.40;1.20;;;22.90;75.50;;;;;;5055243;28;20812;-60
2023/08/04 11:03:19;;;;;;;3.47;1.83;;;22.70;74.20;;;;;;5055345;28;20440;-60
2023/08/04 11:05:46;;;;;;;3.33;1.50;;;22.50;73.50;;;;;;5054933;28;20570;-60
2023/08/04 11:08:13;;;;;;;2.30;1.43;;;22.50;73.20;;;;;;5055401;28;20545;-61
2023/08/04 11:10:46;;;;;;;1.83;1.23;;;22.40;72.90;;;;;;5055428;28;20816;-59
2023/08/04 11:13:13;;;;;;;2.40;1.43;;;22.30;72.10;;;;;;5055481;28;20464;-62
2023/08/04 11:15:44;;;;;;;1.80;1.10;;;22.30;70.90;;;;;;5055169;28;20490;-60
2023/08/04 11:18:12;;;;;;;1.90;1.40;;;22.40;69.80;;;;;;5055307;28;20447;-60
2023/08/04 11:20:40;;;;;;;2.03;1.20;;;22.40;69.40;;;;;;5054557;28;20448;-61
2023/08/04 11:23:09;;;;;;;2.40;1.53;;;22.40;68.70;;;;;;5054694;28;20971;-60
2023/08/04 11:25:36;;;;;;;2.50;1.50;;;22.40;68.70;;;;;;5055676;28;20463;-61
2023/08/04 11:28:03;;;;;;;3.23;1.30;;;22.60;69.20;;;;;;5055716;28;20462;-61
2023/08/04 11:30:32;;;;;;;1.50;1.27;;;22.70;67.40;;;;;;5055275;28;20440;-61
2023/08/04 11:33:00;;;;;;;1.40;1.10;;;22.80;66.50;;;;;;5055517;28;20491;-60
2023/08/04 11:35:28;;;;;;;2.93;1.50;;;22.90;66.40;;;;;;5054495;28;21071;-60
2023/08/04 11:37:55;;;;;;;1.90;1.20;;;22.90;66.20;;;;;;5054376;28;20444;-61
2023/08/04 11:40:24;;;;;;;2.27;1.40;;;22.90;66.30;;;;;;5053698;28;20440;-61
2023/08/04 11:42:51;;;;;;;2.07;1.30;;;22.80;66.40;;;;;;5054366;28;20451;-60
2023/08/04 11:45:18;;;;;;;2.63;1.40;;;22.80;66.50;;;;;;5053712;28;20473;-60
2023/08/04 11:47:46;;;;;;;3.17;1.50;;;22.80;66.80;;;;;;5054113;28;20442;-60
2023/08/04 11:50:16;;;;;;;1.60;1.30;;;22.90;66.60;;;;;;5053306;28;20460;-59
2023/08/04 11:52:46;;;;;;;3.20;1.60;;;23.00;66.40;;;;;;5054053;28;20468;-62
2023/08/04 11:55:13;;;;;;;2.17;1.40;;;23.20;66.40;;;;;;5054246;28;20468;-60
2023/08/04 11:57:48;;;;;;;2.07;1.27;;;23.20;66.20;;;;;;5054955;28;20444;-60
2023/08/04 12:00:15;;;;;;;2.07;1.50;;;23.20;66.20;;;;;;5055389;28;20425;-60
2023/08/04 12:02:57;;;;;;;2.80;2.03;;;23.20;66.70;;;;;;5053247;28;20786;-59
2023/08/04 12:05:29;;;;;;;2.60;1.23;;;23.60;66.10;;;;;;5053325;28;20521;-59
2023/08/04 12:07:57;;;;;;;2.70;1.50;;;23.80;64.90;;;;;;5053860;28;20425;-58
2023/08/04 12:10:24;;;;;;;5.57;1.13;;;24.00;63.30;;;;;;5053061;28;20463;-59
2023/08/04 12:12:52;;;;;;;5.70;1.67;;;24.10;62.80;;;;;;5053313;28;20557;-57
2023/08/04 12:15:19;;;;;;;3.40;1.47;;;24.10;63.10;;;;;;5053261;28;20479;-60
2023/08/04 12:17:45;;;;;;;1.40;1.23;;;24.30;63.00;;;;;;5053510;28;20438;-60
2023/08/04 12:20:13;;;;;;;1.47;1.37;;;24.40;62.30;;;;;;5053235;28;20449;-60
2023/08/04 12:22:44;;;;;;;2.07;1.57;;;24.50;61.80;;;;;;5053189;28;20912;-58
2023/08/04 12:25:12;;;;;;;4.03;1.83;;;24.40;61.10;;;;;;5053190;28;20549;-60
2023/08/04 12:27:39;;;;;;;2.13;1.40;;;24.40;61.10;;;;;;5053160;28;20453;-59
2023/08/04 12:30:07;;;;;;;3.37;1.50;;;24.40;60.80;;;;;;5053168;28;20447;-59
2023/08/04 12:32:34;;;;;;;2.90;1.87;;;24.20;61.30;;;;;;5055158;28;20485;-60
2023/08/04 12:35:01;;;;;;;2.43;1.53;;;24.10;61.80;;;;;;5057784;28;20468;-62
2023/08/04 12:37:27;;;;;;;2.10;1.90;;;24.00;61.30;;;;;;5057582;28;20441;-60
2023/08/04 12:39:55;;;;;;;2.33;1.80;;;24.10;61.20;;;;;;5058027;28;20958;-60
2023/08/04 12:42:22;;;;;;;1.70;1.27;;;24.20;60.30;;;;;;5057851;28;20540;-57
2023/08/04 12:44:49;;;;;;;1.50;1.30;;;24.20;59.30;;;;;;5057735;28;20457;-60
2023/08/04 12:47:16;;;;;;;3.17;1.30;;;24.20;59.20;;;;;;5057583;28;20446;-60
2023/08/04 12:49:43;;;;;;;1.40;1.30;;;24.10;58.80;;;;;;5057195;28;20469;-58
2023/08/04 12:52:10;;;;;;;2.00;1.00;;;24.20;58.80;;;;;;5058254;28;20440;-59